sensor_id;sensor_type;location;lat;lon;timestamp;P1;durP1;ratioP1;P2;durP2;ratioP2
37425;SDS011;23285;50.180;7.036;2022-09-09T00:00:09;6.23;;;1.37;;
37425;SDS011;23285;50.180;7.036;2022-09-09T00:03:19;4.07;;;1.27;;
37425;SDS011;23285;50.180;7.036;2022-09-09T00:06:08;4.40;;;1.50;;
37425;SDS011;23285;50.180;7.036;2022-09-09T00:11:58;5.43;;;1.60;;
37425;SDS011;23285;50.180;7.036;2022-09-09T00:14:59;4.53;;;1.50;;
37425;SDS011;23285;50.180;7.036;2022-09-09T00:21:18;5.60;;;1.40;;
37425;SDS011;23285;50.180;7.036;2022-09-09T00:24:11;3.97;;;1.33;;
37425;SDS011;23285;50.180;7.036;2022-09-09T00:27:19;5.20;;;1.73;;
37425;SDS011;23285;50.180;7.036;2022-09-09T00:30:15;3.90;;;1.50;;
37425;SDS011;23285;50.180;7.036;2022-09-09T00:33:24;1.90;;;1.20;;
37425;SDS011;23285;50.180;7.036;2022-09-09T00:36:13;5.47;;;1.40;;
37425;SDS011;23285;50.180;7.036;2022-09-09T00:39:01;3.83;;;1.50;;
37425;SDS011;23285;50.180;7.036;2022-09-09T00:45:18;3.43;;;1.50;;
37425;SDS011;23285;50.180;7.036;2022-09-09T00:48:12;5.60;;;1.57;;
37425;SDS011;23285;50.180;7.036;2022-09-09T00:51:00;4.97;;;1.93;;
37425;SDS011;23285;50.180;7.036;2022-09-09T00:57:30;9.13;;;1.57;;
37425;SDS011;23285;50.180;7.036;2022-09-09T01:00:22;3.90;;;1.73;;
37425;SDS011;23285;50.180;7.036;2022-09-09T01:12:15;4.80;;;1.40;;
37425;SDS011;23285;50.180;7.036;2022-09-09T01:15:08;3.57;;;1.80;;
37425;SDS011;23285;50.180;7.036;2022-09-09T01:18:06;5.67;;;1.67;;
37425;SDS011;23285;50.180;7.036;2022-09-09T01:27:17;2.23;;;1.43;;
37425;SDS011;23285;50.180;7.036;2022-09-09T01:30:07;1.83;;;1.27;;
37425;SDS011;23285;50.180;7.036;2022-09-09T01:32:57;4.17;;;1.40;;
37425;SDS011;23285;50.180;7.036;2022-09-09T01:38:30;3.80;;;1.30;;
37425;SDS011;23285;50.180;7.036;2022-09-09T01:41:17;5.03;;;1.90;;
37425;SDS011;23285;50.180;7.036;2022-09-09T01:44:10;3.90;;;1.77;;
37425;SDS011;23285;50.180;7.036;2022-09-09T01:46:58;4.00;;;1.57;;
37425;SDS011;23285;50.180;7.036;2022-09-09T01:49:43;6.20;;;1.83;;
37425;SDS011;23285;50.180;7.036;2022-09-09T01:52:37;3.23;;;1.57;;
37425;SDS011;23285;50.180;7.036;2022-09-09T01:55:31;6.07;;;1.80;;
37425;SDS011;23285;50.180;7.036;2022-09-09T02:04:42;6.03;;;2.00;;
37425;SDS011;23285;50.180;7.036;2022-09-09T02:07:43;5.47;;;1.60;;
37425;SDS011;23285;50.180;7.036;2022-09-09T02:13:44;5.67;;;1.90;;
37425;SDS011;23285;50.180;7.036;2022-09-09T02:19:27;4.27;;;1.77;;
37425;SDS011;23285;50.180;7.036;2022-09-09T02:22:37;4.60;;;1.70;;
37425;SDS011;23285;50.180;7.036;2022-09-09T02:25:28;2.80;;;1.53;;
37425;SDS011;23285;50.180;7.036;2022-09-09T02:28:21;4.93;;;1.80;;
37425;SDS011;23285;50.180;7.036;2022-09-09T02:31:10;6.20;;;2.00;;
37425;SDS011;23285;50.180;7.036;2022-09-09T02:33:59;4.43;;;1.70;;
37425;SDS011;23285;50.180;7.036;2022-09-09T02:36:45;5.57;;;2.03;;
37425;SDS011;23285;50.180;7.036;2022-09-09T02:39:32;5.80;;;1.90;;
37425;SDS011;23285;50.180;7.036;2022-09-09T02:42:17;5.90;;;1.80;;
37425;SDS011;23285;50.180;7.036;2022-09-09T02:45:03;6.13;;;1.80;;
37425;SDS011;23285;50.180;7.036;2022-09-09T02:48:00;5.23;;;2.07;;
37425;SDS011;23285;50.180;7.036;2022-09-09T02:50:58;5.37;;;1.60;;
37425;SDS011;23285;50.180;7.036;2022-09-09T02:53:59;6.50;;;2.20;;
37425;SDS011;23285;50.180;7.036;2022-09-09T02:57:12;5.73;;;1.80;;
37425;SDS011;23285;50.180;7.036;2022-09-09T03:00:04;6.57;;;2.10;;
37425;SDS011;23285;50.180;7.036;2022-09-09T03:02:52;7.03;;;2.17;;
37425;SDS011;23285;50.180;7.036;2022-09-09T03:05:38;7.93;;;1.97;;
37425;SDS011;23285;50.180;7.036;2022-09-09T03:08:25;6.63;;;1.80;;
37425;SDS011;23285;50.180;7.036;2022-09-09T03:11:11;9.63;;;2.13;;
37425;SDS011;23285;50.180;7.036;2022-09-09T03:13:59;4.80;;;1.70;;
37425;SDS011;23285;50.180;7.036;2022-09-09T03:16:47;4.87;;;1.60;;
37425;SDS011;23285;50.180;7.036;2022-09-09T03:19:32;4.20;;;1.90;;
37425;SDS011;23285;50.180;7.036;2022-09-09T03:22:19;3.07;;;1.60;;
37425;SDS011;23285;50.180;7.036;2022-09-09T03:25:05;4.70;;;2.00;;
37425;SDS011;23285;50.180;7.036;2022-09-09T03:27:53;8.60;;;2.40;;
37425;SDS011;23285;50.180;7.036;2022-09-09T03:30:40;6.00;;;1.60;;
37425;SDS011;23285;50.180;7.036;2022-09-09T03:33:25;5.30;;;1.73;;
37425;SDS011;23285;50.180;7.036;2022-09-09T03:36:10;6.50;;;2.07;;
37425;SDS011;23285;50.180;7.036;2022-09-09T03:38:56;6.57;;;1.90;;
37425;SDS011;23285;50.180;7.036;2022-09-09T03:41:44;5.20;;;1.80;;
37425;SDS011;23285;50.180;7.036;2022-09-09T03:44:30;4.00;;;1.50;;
37425;SDS011;23285;50.180;7.036;2022-09-09T03:47:16;5.70;;;1.93;;
37425;SDS011;23285;50.180;7.036;2022-09-09T03:50:04;10.23;;;2.67;;
37425;SDS011;23285;50.180;7.036;2022-09-09T03:52:54;7.47;;;1.93;;
37425;SDS011;23285;50.180;7.036;2022-09-09T03:55:44;5.40;;;2.03;;
37425;SDS011;23285;50.180;7.036;2022-09-09T03:58:30;7.07;;;2.13;;
37425;SDS011;23285;50.180;7.036;2022-09-09T04:01:22;7.23;;;2.00;;
37425;SDS011;23285;50.180;7.036;2022-09-09T04:04:07;6.20;;;2.20;;
37425;SDS011;23285;50.180;7.036;2022-09-09T04:06:53;5.83;;;2.00;;
37425;SDS011;23285;50.180;7.036;2022-09-09T04:09:39;8.93;;;2.50;;
37425;SDS011;23285;50.180;7.036;2022-09-09T04:12:24;6.53;;;2.30;;
37425;SDS011;23285;50.180;7.036;2022-09-09T04:15:09;4.97;;;2.63;;
37425;SDS011;23285;50.180;7.036;2022-09-09T04:17:57;4.27;;;2.13;;
37425;SDS011;23285;50.180;7.036;2022-09-09T04:20:42;6.07;;;2.33;;
37425;SDS011;23285;50.180;7.036;2022-09-09T04:23:28;4.73;;;2.27;;
37425;SDS011;23285;50.180;7.036;2022-09-09T04:26:15;4.90;;;1.90;;
37425;SDS011;23285;50.180;7.036;2022-09-09T04:29:03;8.70;;;2.80;;
37425;SDS011;23285;50.180;7.036;2022-09-09T04:31:48;5.60;;;2.17;;
37425;SDS011;23285;50.180;7.036;2022-09-09T04:34:33;4.90;;;2.30;;
37425;SDS011;23285;50.180;7.036;2022-09-09T04:37:19;8.80;;;2.20;;
37425;SDS011;23285;50.180;7.036;2022-09-09T04:40:05;10.03;;;2.90;;
37425;SDS011;23285;50.180;7.036;2022-09-09T04:42:52;7.33;;;2.63;;
37425;SDS011;23285;50.180;7.036;2022-09-09T04:45:37;7.13;;;2.43;;
37425;SDS011;23285;50.180;7.036;2022-09-09T04:48:25;7.23;;;2.40;;
37425;SDS011;23285;50.180;7.036;2022-09-09T04:51:12;7.00;;;1.97;;
37425;SDS011;23285;50.180;7.036;2022-09-09T04:53:58;6.37;;;2.10;;
37425;SDS011;23285;50.180;7.036;2022-09-09T04:56:44;3.83;;;1.80;;
37425;SDS011;23285;50.180;7.036;2022-09-09T04:59:29;4.77;;;1.90;;
37425;SDS011;23285;50.180;7.036;2022-09-09T05:02:17;8.43;;;2.80;;
37425;SDS011;23285;50.180;7.036;2022-09-09T05:05:02;8.87;;;2.60;;
37425;SDS011;23285;50.180;7.036;2022-09-09T05:07:48;12.73;;;3.20;;
37425;SDS011;23285;50.180;7.036;2022-09-09T05:10:34;6.93;;;2.17;;
37425;SDS011;23285;50.180;7.036;2022-09-09T05:13:23;9.17;;;2.53;;
37425;SDS011;23285;50.180;7.036;2022-09-09T05:16:09;8.20;;;2.47;;
37425;SDS011;23285;50.180;7.036;2022-09-09T05:18:56;9.77;;;2.87;;
37425;SDS011;23285;50.180;7.036;2022-09-09T05:21:44;9.40;;;2.93;;
37425;SDS011;23285;50.180;7.036;2022-09-09T05:24:31;8.43;;;2.57;;
37425;SDS011;23285;50.180;7.036;2022-09-09T05:27:18;8.13;;;2.50;;
37425;SDS011;23285;50.180;7.036;2022-09-09T05:30:07;12.33;;;2.63;;
37425;SDS011;23285;50.180;7.036;2022-09-09T05:32:55;9.73;;;2.87;;
37425;SDS011;23285;50.180;7.036;2022-09-09T05:35:41;8.73;;;1.73;;
37425;SDS011;23285;50.180;7.036;2022-09-09T05:38:26;7.83;;;2.27;;
37425;SDS011;23285;50.180;7.036;2022-09-09T05:41:11;7.40;;;2.47;;
37425;SDS011;23285;50.180;7.036;2022-09-09T05:43:58;8.73;;;2.43;;
37425;SDS011;23285;50.180;7.036;2022-09-09T05:46:46;7.70;;;2.40;;
37425;SDS011;23285;50.180;7.036;2022-09-09T05:49:32;7.20;;;2.27;;
37425;SDS011;23285;50.180;7.036;2022-09-09T05:52:18;7.47;;;2.30;;
37425;SDS011;23285;50.180;7.036;2022-09-09T05:55:03;8.87;;;2.57;;
37425;SDS011;23285;50.180;7.036;2022-09-09T05:57:49;7.73;;;2.40;;
37425;SDS011;23285;50.180;7.036;2022-09-09T06:00:36;7.53;;;2.50;;
37425;SDS011;23285;50.180;7.036;2022-09-09T06:03:22;7.60;;;2.53;;
37425;SDS011;23285;50.180;7.036;2022-09-09T06:06:10;9.97;;;2.33;;
37425;SDS011;23285;50.180;7.036;2022-09-09T06:08:56;8.43;;;2.37;;
37425;SDS011;23285;50.180;7.036;2022-09-09T06:11:45;6.20;;;2.63;;
37425;SDS011;23285;50.180;7.036;2022-09-09T06:14:31;6.47;;;2.37;;
37425;SDS011;23285;50.180;7.036;2022-09-09T06:17:18;6.40;;;2.10;;
37425;SDS011;23285;50.180;7.036;2022-09-09T06:20:04;8.03;;;2.37;;
37425;SDS011;23285;50.180;7.036;2022-09-09T06:22:51;8.80;;;2.97;;
37425;SDS011;23285;50.180;7.036;2022-09-09T06:25:36;8.17;;;2.87;;
37425;SDS011;23285;50.180;7.036;2022-09-09T06:28:24;13.93;;;2.43;;
37425;SDS011;23285;50.180;7.036;2022-09-09T06:31:10;6.20;;;2.17;;
37425;SDS011;23285;50.180;7.036;2022-09-09T06:33:57;7.50;;;1.90;;
37425;SDS011;23285;50.180;7.036;2022-09-09T06:36:43;9.20;;;2.67;;
37425;SDS011;23285;50.180;7.036;2022-09-09T06:39:30;9.07;;;2.30;;
37425;SDS011;23285;50.180;7.036;2022-09-09T06:42:16;6.97;;;2.33;;
37425;SDS011;23285;50.180;7.036;2022-09-09T06:45:01;8.93;;;2.03;;
37425;SDS011;23285;50.180;7.036;2022-09-09T06:48:00;9.50;;;2.73;;
37425;SDS011;23285;50.180;7.036;2022-09-09T06:50:46;11.83;;;2.50;;
37425;SDS011;23285;50.180;7.036;2022-09-09T06:53:32;12.70;;;2.93;;
37425;SDS011;23285;50.180;7.036;2022-09-09T06:56:20;11.73;;;2.70;;
37425;SDS011;23285;50.180;7.036;2022-09-09T06:59:11;7.87;;;2.13;;
37425;SDS011;23285;50.180;7.036;2022-09-09T07:01:57;9.87;;;2.93;;
37425;SDS011;23285;50.180;7.036;2022-09-09T07:04:43;10.10;;;2.77;;
37425;SDS011;23285;50.180;7.036;2022-09-09T07:07:28;8.73;;;2.57;;
37425;SDS011;23285;50.180;7.036;2022-09-09T07:10:15;7.13;;;2.43;;
37425;SDS011;23285;50.180;7.036;2022-09-09T07:13:02;7.87;;;2.37;;
37425;SDS011;23285;50.180;7.036;2022-09-09T07:15:47;10.10;;;2.10;;
37425;SDS011;23285;50.180;7.036;2022-09-09T07:18:32;7.57;;;2.30;;
37425;SDS011;23285;50.180;7.036;2022-09-09T07:21:19;4.63;;;1.83;;
37425;SDS011;23285;50.180;7.036;2022-09-09T07:24:05;7.07;;;2.30;;
37425;SDS011;23285;50.180;7.036;2022-09-09T07:26:51;13.63;;;2.57;;
37425;SDS011;23285;50.180;7.036;2022-09-09T07:29:37;14.47;;;2.80;;
37425;SDS011;23285;50.180;7.036;2022-09-09T07:32:22;11.73;;;2.83;;
37425;SDS011;23285;50.180;7.036;2022-09-09T07:35:07;8.50;;;2.87;;
37425;SDS011;23285;50.180;7.036;2022-09-09T07:37:53;9.47;;;2.63;;
37425;SDS011;23285;50.180;7.036;2022-09-09T07:40:38;8.13;;;2.10;;
37425;SDS011;23285;50.180;7.036;2022-09-09T07:43:26;13.73;;;1.97;;
37425;SDS011;23285;50.180;7.036;2022-09-09T07:46:12;11.57;;;2.47;;
37425;SDS011;23285;50.180;7.036;2022-09-09T07:48:59;11.63;;;2.77;;
37425;SDS011;23285;50.180;7.036;2022-09-09T07:51:47;11.27;;;2.10;;
37425;SDS011;23285;50.180;7.036;2022-09-09T07:54:36;10.87;;;2.53;;
37425;SDS011;23285;50.180;7.036;2022-09-09T07:57:23;9.20;;;2.70;;
37425;SDS011;23285;50.180;7.036;2022-09-09T08:00:10;8.70;;;2.13;;
37425;SDS011;23285;50.180;7.036;2022-09-09T08:03:02;6.20;;;1.90;;
37425;SDS011;23285;50.180;7.036;2022-09-09T08:05:48;7.67;;;2.40;;
37425;SDS011;23285;50.180;7.036;2022-09-09T08:08:34;9.07;;;1.97;;
37425;SDS011;23285;50.180;7.036;2022-09-09T08:11:21;8.70;;;1.87;;
37425;SDS011;23285;50.180;7.036;2022-09-09T08:14:09;6.33;;;1.90;;
37425;SDS011;23285;50.180;7.036;2022-09-09T08:16:55;6.07;;;2.00;;
37425;SDS011;23285;50.180;7.036;2022-09-09T08:19:44;10.20;;;2.53;;
37425;SDS011;23285;50.180;7.036;2022-09-09T08:22:34;9.80;;;1.50;;
37425;SDS011;23285;50.180;7.036;2022-09-09T08:25:22;9.33;;;2.10;;
37425;SDS011;23285;50.180;7.036;2022-09-09T08:28:07;7.00;;;2.10;;
37425;SDS011;23285;50.180;7.036;2022-09-09T08:30:53;5.73;;;1.67;;
37425;SDS011;23285;50.180;7.036;2022-09-09T08:33:39;8.97;;;2.00;;
37425;SDS011;23285;50.180;7.036;2022-09-09T08:36:28;8.03;;;1.87;;
37425;SDS011;23285;50.180;7.036;2022-09-09T08:39:15;6.77;;;2.00;;
37425;SDS011;23285;50.180;7.036;2022-09-09T08:42:12;6.00;;;2.17;;
37425;SDS011;23285;50.180;7.036;2022-09-09T08:48:08;5.20;;;1.67;;
37425;SDS011;23285;50.180;7.036;2022-09-09T08:51:03;6.87;;;2.13;;
37425;SDS011;23285;50.180;7.036;2022-09-09T08:53:54;9.67;;;2.17;;
37425;SDS011;23285;50.180;7.036;2022-09-09T08:56:42;9.83;;;2.23;;
37425;SDS011;23285;50.180;7.036;2022-09-09T08:59:29;7.33;;;1.80;;
37425;SDS011;23285;50.180;7.036;2022-09-09T09:02:19;6.93;;;2.10;;
37425;SDS011;23285;50.180;7.036;2022-09-09T09:05:25;7.47;;;1.60;;
37425;SDS011;23285;50.180;7.036;2022-09-09T09:11:22;5.47;;;1.77;;
37425;SDS011;23285;50.180;7.036;2022-09-09T09:14:13;5.83;;;1.80;;
37425;SDS011;23285;50.180;7.036;2022-09-09T09:17:20;12.27;;;2.63;;
37425;SDS011;23285;50.180;7.036;2022-09-09T09:20:11;8.03;;;2.17;;
37425;SDS011;23285;50.180;7.036;2022-09-09T09:23:00;9.40;;;2.17;;
37425;SDS011;23285;50.180;7.036;2022-09-09T09:25:47;8.73;;;2.27;;
37425;SDS011;23285;50.180;7.036;2022-09-09T09:28:35;10.33;;;2.20;;
37425;SDS011;23285;50.180;7.036;2022-09-09T09:31:28;7.80;;;2.20;;
37425;SDS011;23285;50.180;7.036;2022-09-09T09:34:13;6.97;;;1.77;;
37425;SDS011;23285;50.180;7.036;2022-09-09T09:36:59;9.53;;;2.50;;
37425;SDS011;23285;50.180;7.036;2022-09-09T09:39:51;5.43;;;1.70;;
37425;SDS011;23285;50.180;7.036;2022-09-09T09:42:37;6.53;;;1.90;;
37425;SDS011;23285;50.180;7.036;2022-09-09T09:48:18;11.00;;;2.37;;
37425;SDS011;23285;50.180;7.036;2022-09-09T09:51:06;8.13;;;2.30;;
37425;SDS011;23285;50.180;7.036;2022-09-09T09:54:07;7.90;;;2.27;;
37425;SDS011;23285;50.180;7.036;2022-09-09T10:03:18;5.07;;;1.70;;
37425;SDS011;23285;50.180;7.036;2022-09-09T10:06:05;7.90;;;2.10;;
37425;SDS011;23285;50.180;7.036;2022-09-09T10:08:50;10.77;;;2.30;;
37425;SDS011;23285;50.180;7.036;2022-09-09T10:11:43;9.60;;;2.47;;
37425;SDS011;23285;50.180;7.036;2022-09-09T10:14:41;10.10;;;2.40;;
37425;SDS011;23285;50.180;7.036;2022-09-09T10:21:02;9.33;;;2.10;;
37425;SDS011;23285;50.180;7.036;2022-09-09T10:27:03;5.13;;;2.40;;
37425;SDS011;23285;50.180;7.036;2022-09-09T10:33:55;9.50;;;2.23;;
37425;SDS011;23285;50.180;7.036;2022-09-09T10:36:16;8.43;;;2.10;;
37425;SDS011;23285;50.180;7.036;2022-09-09T10:39:06;8.30;;;2.37;;
37425;SDS011;23285;50.180;7.036;2022-09-09T10:45:07;9.13;;;2.03;;
37425;SDS011;23285;50.180;7.036;2022-09-09T10:54:25;8.03;;;1.97;;
37425;SDS011;23285;50.180;7.036;2022-09-09T11:00:10;5.83;;;1.60;;
37425;SDS011;23285;50.180;7.036;2022-09-09T11:03:03;6.93;;;1.60;;
37425;SDS011;23285;50.180;7.036;2022-09-09T11:05:52;5.10;;;1.63;;
37425;SDS011;23285;50.180;7.036;2022-09-09T11:08:45;10.93;;;2.03;;
37425;SDS011;23285;50.180;7.036;2022-09-09T11:11:42;6.47;;;2.23;;
37425;SDS011;23285;50.180;7.036;2022-09-09T11:14:32;8.53;;;2.23;;
37425;SDS011;23285;50.180;7.036;2022-09-09T11:17:33;8.80;;;1.87;;
37425;SDS011;23285;50.180;7.036;2022-09-09T11:20:35;6.70;;;1.70;;
37425;SDS011;23285;50.180;7.036;2022-09-09T11:23:38;3.20;;;1.40;;
37425;SDS011;23285;50.180;7.036;2022-09-09T11:26:37;6.03;;;1.20;;
37425;SDS011;23285;50.180;7.036;2022-09-09T11:38:46;6.27;;;1.57;;
37425;SDS011;23285;50.180;7.036;2022-09-09T11:41:33;5.40;;;1.63;;
37425;SDS011;23285;50.180;7.036;2022-09-09T11:44:26;4.83;;;1.60;;
37425;SDS011;23285;50.180;7.036;2022-09-09T11:47:26;3.83;;;1.80;;
37425;SDS011;23285;50.180;7.036;2022-09-09T11:53:04;4.17;;;1.30;;
37425;SDS011;23285;50.180;7.036;2022-09-09T11:59:02;5.83;;;1.90;;
37425;SDS011;23285;50.180;7.036;2022-09-09T12:02:22;4.43;;;1.57;;
37425;SDS011;23285;50.180;7.036;2022-09-09T12:05:12;5.43;;;1.90;;
37425;SDS011;23285;50.180;7.036;2022-09-09T12:08:00;6.63;;;1.80;;
37425;SDS011;23285;50.180;7.036;2022-09-09T12:10:58;3.50;;;1.37;;
37425;SDS011;23285;50.180;7.036;2022-09-09T12:13:57;4.33;;;1.40;;
37425;SDS011;23285;50.180;7.036;2022-09-09T12:16:44;5.30;;;1.60;;
37425;SDS011;23285;50.180;7.036;2022-09-09T12:19:30;4.77;;;1.30;;
37425;SDS011;23285;50.180;7.036;2022-09-09T12:28:20;5.07;;;1.40;;
37425;SDS011;23285;50.180;7.036;2022-09-09T12:31:33;12.30;;;1.50;;
37425;SDS011;23285;50.180;7.036;2022-09-09T12:34:44;9.07;;;1.30;;
37425;SDS011;23285;50.180;7.036;2022-09-09T12:37:37;2.13;;;1.00;;
37425;SDS011;23285;50.180;7.036;2022-09-09T12:40:28;3.73;;;1.40;;
37425;SDS011;23285;50.180;7.036;2022-09-09T12:43:19;3.93;;;1.50;;
37425;SDS011;23285;50.180;7.036;2022-09-09T12:46:07;2.80;;;1.30;;
37425;SDS011;23285;50.180;7.036;2022-09-09T12:48:58;8.73;;;1.90;;
37425;SDS011;23285;50.180;7.036;2022-09-09T12:51:43;8.47;;;1.70;;
37425;SDS011;23285;50.180;7.036;2022-09-09T12:54:28;5.13;;;1.40;;
37425;SDS011;23285;50.180;7.036;2022-09-09T12:57:13;3.17;;;1.10;;
37425;SDS011;23285;50.180;7.036;2022-09-09T13:00:07;3.77;;;1.40;;
37425;SDS011;23285;50.180;7.036;2022-09-09T13:02:59;1.20;;;0.80;;
37425;SDS011;23285;50.180;7.036;2022-09-09T13:05:46;3.17;;;1.33;;
37425;SDS011;23285;50.180;7.036;2022-09-09T13:08:31;3.63;;;1.37;;
37425;SDS011;23285;50.180;7.036;2022-09-09T13:11:18;3.37;;;1.30;;
37425;SDS011;23285;50.180;7.036;2022-09-09T13:14:20;3.37;;;1.07;;
37425;SDS011;23285;50.180;7.036;2022-09-09T13:17:17;1.97;;;1.10;;
37425;SDS011;23285;50.180;7.036;2022-09-09T13:20:04;2.43;;;1.10;;
37425;SDS011;23285;50.180;7.036;2022-09-09T13:22:50;2.37;;;1.20;;
37425;SDS011;23285;50.180;7.036;2022-09-09T13:25:37;3.57;;;1.30;;
37425;SDS011;23285;50.180;7.036;2022-09-09T13:28:25;3.83;;;1.27;;
37425;SDS011;23285;50.180;7.036;2022-09-09T13:31:32;6.47;;;1.50;;
37425;SDS011;23285;50.180;7.036;2022-09-09T13:34:30;5.43;;;1.20;;
37425;SDS011;23285;50.180;7.036;2022-09-09T13:37:20;7.63;;;1.90;;
37425;SDS011;23285;50.180;7.036;2022-09-09T13:40:13;6.07;;;1.47;;
37425;SDS011;23285;50.180;7.036;2022-09-09T13:43:03;15.47;;;1.90;;
37425;SDS011;23285;50.180;7.036;2022-09-09T13:45:53;15.00;;;2.03;;
37425;SDS011;23285;50.180;7.036;2022-09-09T13:48:40;4.63;;;1.80;;
37425;SDS011;23285;50.180;7.036;2022-09-09T13:54:21;15.00;;;3.17;;
37425;SDS011;23285;50.180;7.036;2022-09-09T13:57:14;20.50;;;3.23;;
37425;SDS011;23285;50.180;7.036;2022-09-09T14:00:10;6.33;;;1.77;;
37425;SDS011;23285;50.180;7.036;2022-09-09T14:02:57;4.53;;;1.43;;
37425;SDS011;23285;50.180;7.036;2022-09-09T14:05:42;4.07;;;1.60;;
37425;SDS011;23285;50.180;7.036;2022-09-09T14:08:29;4.30;;;1.30;;
37425;SDS011;23285;50.180;7.036;2022-09-09T14:11:21;4.70;;;1.40;;
37425;SDS011;23285;50.180;7.036;2022-09-09T14:14:06;3.77;;;1.43;;
37425;SDS011;23285;50.180;7.036;2022-09-09T14:16:51;6.17;;;1.43;;
37425;SDS011;23285;50.180;7.036;2022-09-09T14:19:36;4.40;;;1.10;;
37425;SDS011;23285;50.180;7.036;2022-09-09T14:22:21;3.57;;;0.90;;
37425;SDS011;23285;50.180;7.036;2022-09-09T14:25:07;1.70;;;0.90;;
37425;SDS011;23285;50.180;7.036;2022-09-09T14:27:52;2.60;;;1.03;;
37425;SDS011;23285;50.180;7.036;2022-09-09T14:30:38;4.37;;;1.50;;
37425;SDS011;23285;50.180;7.036;2022-09-09T14:33:24;3.67;;;1.30;;
37425;SDS011;23285;50.180;7.036;2022-09-09T14:36:10;4.03;;;1.40;;
37425;SDS011;23285;50.180;7.036;2022-09-09T14:38:55;1.97;;;1.20;;
37425;SDS011;23285;50.180;7.036;2022-09-09T14:41:40;5.23;;;1.33;;
37425;SDS011;23285;50.180;7.036;2022-09-09T14:44:24;5.03;;;1.40;;
37425;SDS011;23285;50.180;7.036;2022-09-09T14:47:10;6.30;;;1.50;;
37425;SDS011;23285;50.180;7.036;2022-09-09T14:49:56;5.00;;;1.53;;
37425;SDS011;23285;50.180;7.036;2022-09-09T14:52:40;4.60;;;1.80;;
37425;SDS011;23285;50.180;7.036;2022-09-09T14:55:25;4.90;;;1.73;;
37425;SDS011;23285;50.180;7.036;2022-09-09T14:58:12;3.77;;;1.63;;
37425;SDS011;23285;50.180;7.036;2022-09-09T15:01:04;3.63;;;1.60;;
37425;SDS011;23285;50.180;7.036;2022-09-09T15:03:51;4.87;;;1.53;;
37425;SDS011;23285;50.180;7.036;2022-09-09T15:06:37;4.27;;;1.40;;
37425;SDS011;23285;50.180;7.036;2022-09-09T15:09:23;4.27;;;1.40;;
37425;SDS011;23285;50.180;7.036;2022-09-09T15:12:08;3.83;;;1.70;;
37425;SDS011;23285;50.180;7.036;2022-09-09T15:14:53;2.50;;;1.20;;
37425;SDS011;23285;50.180;7.036;2022-09-09T15:17:39;4.67;;;1.40;;
37425;SDS011;23285;50.180;7.036;2022-09-09T15:20:24;3.33;;;1.30;;
37425;SDS011;23285;50.180;7.036;2022-09-09T15:23:09;3.60;;;1.20;;
37425;SDS011;23285;50.180;7.036;2022-09-09T15:25:55;6.07;;;1.27;;
37425;SDS011;23285;50.180;7.036;2022-09-09T15:28:40;5.40;;;1.17;;
37425;SDS011;23285;50.180;7.036;2022-09-09T15:31:28;2.70;;;1.23;;
37425;SDS011;23285;50.180;7.036;2022-09-09T15:34:14;5.93;;;1.57;;
37425;SDS011;23285;50.180;7.036;2022-09-09T15:37:00;1.87;;;1.00;;
37425;SDS011;23285;50.180;7.036;2022-09-09T15:39:45;2.30;;;1.10;;
37425;SDS011;23285;50.180;7.036;2022-09-09T15:42:30;2.10;;;1.00;;
37425;SDS011;23285;50.180;7.036;2022-09-09T15:45:15;1.87;;;1.27;;
37425;SDS011;23285;50.180;7.036;2022-09-09T15:48:01;6.37;;;1.50;;
37425;SDS011;23285;50.180;7.036;2022-09-09T15:50:54;3.97;;;1.30;;
37425;SDS011;23285;50.180;7.036;2022-09-09T15:53:47;2.10;;;1.07;;
37425;SDS011;23285;50.180;7.036;2022-09-09T15:56:32;3.10;;;1.40;;
37425;SDS011;23285;50.180;7.036;2022-09-09T15:59:18;5.73;;;1.40;;
37425;SDS011;23285;50.180;7.036;2022-09-09T16:02:04;3.10;;;1.77;;
37425;SDS011;23285;50.180;7.036;2022-09-09T16:04:49;2.50;;;1.20;;
37425;SDS011;23285;50.180;7.036;2022-09-09T16:07:34;5.73;;;1.47;;
37425;SDS011;23285;50.180;7.036;2022-09-09T16:10:20;2.80;;;1.10;;
37425;SDS011;23285;50.180;7.036;2022-09-09T16:13:05;1.70;;;1.00;;
37425;SDS011;23285;50.180;7.036;2022-09-09T16:15:54;3.77;;;1.30;;
37425;SDS011;23285;50.180;7.036;2022-09-09T16:18:40;3.10;;;1.27;;
37425;SDS011;23285;50.180;7.036;2022-09-09T16:21:31;4.17;;;1.13;;
37425;SDS011;23285;50.180;7.036;2022-09-09T16:24:18;2.73;;;1.13;;
37425;SDS011;23285;50.180;7.036;2022-09-09T16:27:04;3.30;;;1.30;;
37425;SDS011;23285;50.180;7.036;2022-09-09T16:29:49;3.77;;;1.23;;
37425;SDS011;23285;50.180;7.036;2022-09-09T16:32:34;2.10;;;1.13;;
37425;SDS011;23285;50.180;7.036;2022-09-09T16:35:19;6.87;;;2.60;;
37425;SDS011;23285;50.180;7.036;2022-09-09T16:38:06;6.70;;;2.20;;
37425;SDS011;23285;50.180;7.036;2022-09-09T16:40:51;2.90;;;1.47;;
37425;SDS011;23285;50.180;7.036;2022-09-09T16:43:44;4.77;;;1.43;;
37425;SDS011;23285;50.180;7.036;2022-09-09T16:46:30;3.83;;;1.43;;
37425;SDS011;23285;50.180;7.036;2022-09-09T16:49:16;3.60;;;1.20;;
37425;SDS011;23285;50.180;7.036;2022-09-09T16:52:01;4.77;;;1.23;;
37425;SDS011;23285;50.180;7.036;2022-09-09T16:54:46;4.73;;;1.67;;
37425;SDS011;23285;50.180;7.036;2022-09-09T16:57:31;2.47;;;1.03;;
37425;SDS011;23285;50.180;7.036;2022-09-09T17:00:16;4.83;;;1.50;;
37425;SDS011;23285;50.180;7.036;2022-09-09T17:03:01;3.80;;;1.33;;
37425;SDS011;23285;50.180;7.036;2022-09-09T17:05:46;3.80;;;1.70;;
37425;SDS011;23285;50.180;7.036;2022-09-09T17:08:31;3.03;;;1.53;;
37425;SDS011;23285;50.180;7.036;2022-09-09T17:11:18;5.67;;;1.90;;
37425;SDS011;23285;50.180;7.036;2022-09-09T17:14:03;3.13;;;1.53;;
37425;SDS011;23285;50.180;7.036;2022-09-09T17:16:49;2.97;;;1.47;;
37425;SDS011;23285;50.180;7.036;2022-09-09T17:19:34;4.83;;;1.80;;
37425;SDS011;23285;50.180;7.036;2022-09-09T17:22:19;3.47;;;1.57;;
37425;SDS011;23285;50.180;7.036;2022-09-09T17:25:04;2.77;;;1.37;;
37425;SDS011;23285;50.180;7.036;2022-09-09T17:27:50;4.43;;;1.63;;
37425;SDS011;23285;50.180;7.036;2022-09-09T17:30:36;3.00;;;1.33;;
37425;SDS011;23285;50.180;7.036;2022-09-09T17:33:21;3.00;;;1.40;;
37425;SDS011;23285;50.180;7.036;2022-09-09T17:36:17;5.13;;;1.67;;
37425;SDS011;23285;50.180;7.036;2022-09-09T17:39:06;3.40;;;1.83;;
37425;SDS011;23285;50.180;7.036;2022-09-09T17:41:52;4.70;;;1.87;;
37425;SDS011;23285;50.180;7.036;2022-09-09T17:44:38;5.57;;;1.90;;
37425;SDS011;23285;50.180;7.036;2022-09-09T17:47:24;4.43;;;2.10;;
37425;SDS011;23285;50.180;7.036;2022-09-09T17:50:10;7.40;;;1.80;;
37425;SDS011;23285;50.180;7.036;2022-09-09T17:52:57;6.07;;;1.93;;
37425;SDS011;23285;50.180;7.036;2022-09-09T17:55:42;9.20;;;2.03;;
37425;SDS011;23285;50.180;7.036;2022-09-09T17:58:27;5.90;;;2.10;;
37425;SDS011;23285;50.180;7.036;2022-09-09T18:01:14;5.03;;;1.90;;
37425;SDS011;23285;50.180;7.036;2022-09-09T18:04:00;4.80;;;1.83;;
37425;SDS011;23285;50.180;7.036;2022-09-09T18:06:48;4.97;;;2.20;;
37425;SDS011;23285;50.180;7.036;2022-09-09T18:09:34;3.57;;;1.50;;
37425;SDS011;23285;50.180;7.036;2022-09-09T18:12:19;3.73;;;1.60;;
37425;SDS011;23285;50.180;7.036;2022-09-09T18:15:04;5.37;;;1.93;;
37425;SDS011;23285;50.180;7.036;2022-09-09T18:17:49;4.80;;;1.57;;
37425;SDS011;23285;50.180;7.036;2022-09-09T18:20:34;3.03;;;1.43;;
37425;SDS011;23285;50.180;7.036;2022-09-09T18:23:19;6.13;;;1.90;;
37425;SDS011;23285;50.180;7.036;2022-09-09T18:26:08;4.37;;;2.07;;
37425;SDS011;23285;50.180;7.036;2022-09-09T18:28:56;6.03;;;1.73;;
37425;SDS011;23285;50.180;7.036;2022-09-09T18:31:42;4.13;;;1.63;;
37425;SDS011;23285;50.180;7.036;2022-09-09T18:34:27;6.80;;;2.10;;
37425;SDS011;23285;50.180;7.036;2022-09-09T18:37:13;3.03;;;1.57;;
37425;SDS011;23285;50.180;7.036;2022-09-09T18:39:58;2.93;;;1.60;;